Inicio METAR Ruta Wind Satelite

Informe Meteorológico

Fecha: 2024/04/20 11:11:06 Local
2024.04.20 16:11 UTC


Operación:VFR
SKBG 201600Z 17005KT 9999 SCT020 27/19 Q1017 =

SKBG 201500Z 13004KT 9999 FEW020 25/19 Q1018
SKBG 201400Z 18003KT 9999 FEW015 BKN070 23/20 Q1019
SKBG 201300Z 19004KT 9999 SCT015 BKN070 20/19 Q1018
SKBG 201200Z 18004KT 9999 SCT010 BKN070 20/19 Q1018 REDZ
SKBG 201100Z 19004KT 8000 -DZ SCT010 BKN050 20/19 Q1017

2024/04/20 12:42
TAF TAF SKBG 201030Z 2012/2112 VRB02KT 9999 SCT010
BECMG 2015/2017 32010KT SCT015 PROB40
TEMPO 2021/2024 5000 TSRA BKN010CB
BECMG 2100/2102 VRB02KT TX27/2019Z TN20/2110Z